createdAt,value
2023-04-02T00:01:26.843Z,36.75
2023-04-02T00:04:22.591Z,38.50
2023-04-02T00:06:54.670Z,24.50
2023-04-02T00:09:25.158Z,36.50
2023-04-02T00:11:55.938Z,30.75
2023-04-02T00:14:25.968Z,36.50
2023-04-02T00:16:55.935Z,27.25
2023-04-02T00:19:26.945Z,30.75
2023-04-02T00:21:57.794Z,33.25
2023-04-02T00:24:26.092Z,31.25
2023-04-02T00:26:54.699Z,38.25
2023-04-02T00:29:22.800Z,38.25
2023-04-02T00:31:52.598Z,36.50
2023-04-02T00:34:23.354Z,32.75
2023-04-02T00:36:51.913Z,33.25
2023-04-02T00:39:23.371Z,35.50
2023-04-02T00:41:54.799Z,36.75
2023-04-02T00:44:23.900Z,35.50
2023-04-02T00:46:53.056Z,38.50
2023-04-02T00:49:24.046Z,38.75
2023-04-02T00:51:54.097Z,35.00
2023-04-02T00:54:25.793Z,37.75
2023-04-02T00:56:54.832Z,39.75
2023-04-02T00:59:27.889Z,39.25
2023-04-02T01:02:02.013Z,30.25
2023-04-02T01:04:35.061Z,36.40
2023-04-02T01:07:08.785Z,40.20
2023-04-02T01:09:48.489Z,42.20
2023-04-02T01:12:32.544Z,39.75
2023-04-02T01:15:05.717Z,36.75
2023-04-02T01:17:39.929Z,37.75
2023-04-02T01:20:25.600Z,32.50
2023-04-02T01:22:58.038Z,38.50
2023-04-02T01:25:29.869Z,36.50
2023-04-02T01:28:01.387Z,29.50
2023-04-02T01:30:31.143Z,38.50
2023-04-02T01:32:59.362Z,37.50
2023-04-02T01:35:30.717Z,37.25
2023-04-02T01:38:03.410Z,37.50
2023-04-02T01:40:36.953Z,36.50
2023-04-02T01:43:11.749Z,37.50
2023-04-02T01:45:41.207Z,35.50
2023-04-02T01:48:15.107Z,40.25
2023-04-02T01:50:44.324Z,36.50
2023-04-02T01:53:14.851Z,33.75
2023-04-02T01:55:44.911Z,36.50
2023-04-02T01:58:14.277Z,37.00
2023-04-02T02:00:49.230Z,38.25
2023-04-02T02:03:17.943Z,35.00
2023-04-02T02:05:46.521Z,36.25
2023-04-02T02:08:28.968Z,38.00
2023-04-02T02:10:57.966Z,32.75
2023-04-02T02:13:26.078Z,34.75
2023-04-02T02:15:58.346Z,35.00
2023-04-02T02:18:27.690Z,40.25
2023-04-02T02:20:56.295Z,37.75
2023-04-02T02:23:24.649Z,37.50
2023-04-02T02:25:52.754Z,38.00
2023-04-02T02:28:23.545Z,36.50
2023-04-02T02:30:54.032Z,40.25
2023-04-02T02:33:25.601Z,40.00
2023-04-02T02:36:00.778Z,36.75
2023-04-02T02:38:38.552Z,28.00
2023-04-02T02:41:16.878Z,34.25
2023-04-02T02:43:48.479Z,35.00
2023-04-02T02:46:19.544Z,34.25
2023-04-02T02:48:49.532Z,34.00
2023-04-02T02:51:22.050Z,25.00
2023-04-02T02:53:52.460Z,36.25
2023-04-02T02:56:23.231Z,32.75
2023-04-02T02:58:52.520Z,27.75
2023-04-02T03:01:29.793Z,24.00
2023-04-02T03:04:02.122Z,38.00
2023-04-02T03:06:30.748Z,36.00
2023-04-02T03:09:04.698Z,27.50
2023-04-02T03:11:38.224Z,29.50
2023-04-02T03:14:16.933Z,35.25
2023-04-02T03:16:48.023Z,39.25
2023-04-02T03:19:25.880Z,34.75
2023-04-02T03:21:57.241Z,38.75
2023-04-02T03:24:34.147Z,38.00
2023-04-02T03:27:05.055Z,31.75
2023-04-02T03:29:35.429Z,33.25
2023-04-02T03:32:06.846Z,35.25
2023-04-02T03:34:38.989Z,36.50
2023-04-02T03:37:11.865Z,39.00
2023-04-02T03:39:44.300Z,40.50
2023-04-02T03:42:17.149Z,32.25
2023-04-02T03:44:49.502Z,39.00
2023-04-02T03:47:21.179Z,31.00
2023-04-02T03:49:55.168Z,37.25
2023-04-02T03:52:26.025Z,33.25
2023-04-02T03:54:55.916Z,30.50
2023-04-02T03:57:28.329Z,34.00
2023-04-02T04:00:00.646Z,34.00
2023-04-02T04:02:36.739Z,40.25
2023-04-02T04:05:07.535Z,33.75
2023-04-02T04:07:40.017Z,38.50
2023-04-02T04:10:09.797Z,34.50
2023-04-02T04:12:41.757Z,36.00
2023-04-02T04:15:17.855Z,28.50
2023-04-02T04:17:51.758Z,29.25
2023-04-02T04:20:25.977Z,29.50
2023-04-02T04:22:56.207Z,26.00
2023-04-02T04:25:30.592Z,31.75
2023-04-02T04:28:09.091Z,27.50
2023-04-02T04:30:47.790Z,26.00
2023-04-02T04:33:22.539Z,28.25
2023-04-02T04:35:57.390Z,29.25
2023-04-02T04:38:32.909Z,21.25
2023-04-02T04:41:05.116Z,26.25
2023-04-02T04:43:41.805Z,26.50
2023-04-02T04:46:14.002Z,27.00
2023-04-02T04:48:48.508Z,28.25
2023-04-02T04:51:22.287Z,28.25
2023-04-02T04:53:52.484Z,23.50
2023-04-02T04:56:24.860Z,23.25
2023-04-02T04:59:02.210Z,23.25
2023-04-02T05:01:36.555Z,18.75
2023-04-02T05:04:11.213Z,23.25
2023-04-02T05:06:42.002Z,23.25
2023-04-02T05:09:14.975Z,25.25
2023-04-02T05:11:46.563Z,15.75
2023-04-02T05:14:19.875Z,17.25
2023-04-02T05:16:52.616Z,24.75
2023-04-02T05:19:24.869Z,28.75
2023-04-02T05:21:58.990Z,20.50
2023-04-02T05:24:34.671Z,23.25
2023-04-02T05:27:04.664Z,23.25
2023-04-02T05:29:35.765Z,21.75
2023-04-02T05:32:07.524Z,20.75
2023-04-02T05:34:38.413Z,20.00
2023-04-02T05:37:09.396Z,24.75
2023-04-02T05:39:37.815Z,23.00
2023-04-02T05:42:06.878Z,25.00
2023-04-02T05:45:05.388Z,20.50
2023-04-02T05:47:41.137Z,17.50
2023-04-02T05:50:17.741Z,21.75
2023-04-02T05:52:51.951Z,24.50
2023-04-02T05:55:31.584Z,23.75
2023-04-02T05:58:29.444Z,24.50
2023-04-02T06:00:55.824Z,25.25
2023-04-02T06:03:28.163Z,24.75
2023-04-02T06:05:59.397Z,23.75
2023-04-02T06:08:33.152Z,26.00
2023-04-02T06:11:05.737Z,20.75
2023-04-02T06:13:34.419Z,26.25
2023-04-02T06:16:03.522Z,23.00
2023-04-02T06:18:35.272Z,28.50
2023-04-02T06:21:03.867Z,27.00
2023-04-02T06:23:38.644Z,25.00
2023-04-02T06:26:11.627Z,24.75
2023-04-02T06:28:45.498Z,29.25
2023-04-02T06:31:20.016Z,24.50
2023-04-02T06:33:52.458Z,32.75
2023-04-02T06:36:22.633Z,26.25
2023-04-02T06:38:53.525Z,29.75
2023-04-02T06:41:23.282Z,26.25
2023-04-02T06:44:14.837Z,28.75
2023-04-02T06:46:58.261Z,21.75
2023-04-02T06:49:32.089Z,22.75
2023-04-02T06:52:06.580Z,25.75
2023-04-02T06:54:37.092Z,27.00
2023-04-02T06:57:10.770Z,26.50
2023-04-02T06:59:42.123Z,25.75
2023-04-02T07:02:23.161Z,26.25
2023-04-02T07:04:51.411Z,24.50
2023-04-02T07:07:21.189Z,26.25
2023-04-02T07:09:52.225Z,21.00
2023-04-02T07:12:23.790Z,23.25
2023-04-02T07:14:52.309Z,25.25
2023-04-02T07:17:21.662Z,21.50
2023-04-02T07:19:50.525Z,23.50
2023-04-02T07:22:21.746Z,30.25
2023-04-02T07:24:56.482Z,19.75
2023-04-02T07:27:24.673Z,24.00
2023-04-02T07:29:52.804Z,25.25
2023-04-02T07:32:20.983Z,25.75
2023-04-02T07:34:49.235Z,21.75
2023-04-02T07:37:17.457Z,23.00
2023-04-02T07:39:45.725Z,19.75
2023-04-02T07:42:15.385Z,22.00
2023-04-02T07:44:43.717Z,23.25
2023-04-02T07:47:11.976Z,21.00
2023-04-02T07:49:40.226Z,19.75
2023-04-02T07:52:10.507Z,21.75
2023-04-02T07:54:38.604Z,21.50
2023-04-02T07:57:07.180Z,23.25
2023-04-02T07:59:37.033Z,20.75
2023-04-02T08:02:06.123Z,23.00
2023-04-02T08:04:34.364Z,22.50
2023-04-02T08:07:03.190Z,22.75
2023-04-02T08:09:31.288Z,22.00
2023-04-02T08:11:59.395Z,24.00
2023-04-02T08:14:27.581Z,14.00
2023-04-02T08:16:57.454Z,20.00
2023-04-02T08:19:25.641Z,20.75
2023-04-02T08:21:54.590Z,24.00
2023-04-02T08:24:23.085Z,17.75
2023-04-02T08:26:53.597Z,21.75
2023-04-02T08:29:22.103Z,20.50
2023-04-02T08:31:50.468Z,21.50
2023-04-02T08:34:20.013Z,22.50
2023-04-02T08:36:48.288Z,21.50
2023-04-02T08:39:16.422Z,19.00
2023-04-02T08:41:47.122Z,22.50
2023-04-02T08:44:32.462Z,21.50
2023-04-02T08:47:03.247Z,17.25
2023-04-02T08:49:33.875Z,20.50
2023-04-02T08:52:02.089Z,23.25
2023-04-02T08:54:30.992Z,19.50
2023-04-02T08:57:02.806Z,20.00
2023-04-02T08:59:34.033Z,19.75
2023-04-02T09:02:08.220Z,19.75
2023-04-02T09:04:38.730Z,15.00
2023-04-02T09:07:07.289Z,19.50
2023-04-02T09:09:38.496Z,20.75
2023-04-02T09:12:14.860Z,18.00
2023-04-02T09:14:44.073Z,17.00
2023-04-02T09:17:16.442Z,18.50
2023-04-02T09:19:48.467Z,18.25
2023-04-02T09:22:20.968Z,20.50
2023-04-02T09:24:52.918Z,21.50
2023-04-02T09:27:22.125Z,19.75
2023-04-02T09:29:52.466Z,17.50
2023-04-02T09:32:32.156Z,16.25
2023-04-02T09:35:24.541Z,18.75
2023-04-02T09:38:13.110Z,19.25
2023-04-02T09:40:45.875Z,18.00
2023-04-02T09:43:16.156Z,13.50
2023-04-02T09:45:44.897Z,16.75
2023-04-02T09:48:24.390Z,18.75
2023-04-02T09:51:04.593Z,9.75
2023-04-02T09:53:34.928Z,18.25
2023-04-02T09:56:13.879Z,19.25
2023-04-02T09:58:44.245Z,9.75
2023-04-02T10:01:32.194Z,18.00
2023-04-02T10:04:00.525Z,16.75
2023-04-02T10:06:31.144Z,20.50
2023-04-02T10:08:59.600Z,16.50
2023-04-02T10:11:36.549Z,16.75
2023-04-02T10:14:12.143Z,13.25
2023-04-02T10:16:43.267Z,17.25
2023-04-02T10:19:17.144Z,15.50
2023-04-02T10:21:47.364Z,15.00
2023-04-02T10:24:16.363Z,14.75
2023-04-02T10:26:53.156Z,14.50
2023-04-02T10:29:28.629Z,21.25
2023-04-02T10:32:01.396Z,18.75
2023-04-02T10:34:35.662Z,15.75
2023-04-02T10:37:11.511Z,17.75
2023-04-02T10:39:41.971Z,18.75
2023-04-02T10:42:15.054Z,20.50
2023-04-02T10:44:47.538Z,16.00
2023-04-02T10:47:23.556Z,17.50
2023-04-02T10:49:57.918Z,16.50
2023-04-02T10:52:30.551Z,18.00
2023-04-02T10:55:02.059Z,17.25
2023-04-02T10:57:35.156Z,19.00
2023-04-02T11:00:16.912Z,14.25
2023-04-02T11:02:48.166Z,16.00
2023-04-02T11:05:20.015Z,18.25
2023-04-02T11:07:54.607Z,13.50
2023-04-02T11:10:23.891Z,17.50
2023-04-02T11:12:57.696Z,15.75
2023-04-02T11:15:26.200Z,17.00
2023-04-02T11:17:54.849Z,19.75
2023-04-02T11:20:53.189Z,16.75
2023-04-02T11:23:22.833Z,17.50
2023-04-02T11:25:51.233Z,17.75
2023-04-02T11:28:28.418Z,17.00
2023-04-02T11:30:57.567Z,21.00
2023-04-02T11:33:36.585Z,18.75
2023-04-02T11:36:26.947Z,16.25
2023-04-02T11:39:04.497Z,17.75
2023-04-02T11:41:54.336Z,13.75
2023-04-02T11:44:25.872Z,17.25
2023-04-02T11:46:54.177Z,17.75
2023-04-02T11:49:39.902Z,14.75
2023-04-02T11:52:25.921Z,21.25
2023-04-02T11:54:59.725Z,17.00
2023-04-02T11:57:39.312Z,20.50
2023-04-02T12:00:20.818Z,15.50
2023-04-02T12:02:55.296Z,18.00
2023-04-02T12:05:26.845Z,18.00
2023-04-02T12:08:07.657Z,16.50
2023-04-02T12:10:51.513Z,15.50
2023-04-02T12:13:21.268Z,20.50
2023-04-02T12:15:50.280Z,16.25
2023-04-02T12:18:20.641Z,20.75
2023-04-02T12:20:50.324Z,17.50
2023-04-02T12:23:22.528Z,18.50
2023-04-02T12:25:58.571Z,19.50
2023-04-02T12:28:28.975Z,20.75
2023-04-02T12:31:04.258Z,17.75
2023-04-02T12:33:37.551Z,18.50
2023-04-02T12:36:06.492Z,16.75
2023-04-02T12:38:36.936Z,14.00
2023-04-02T12:41:07.620Z,20.25
2023-04-02T12:43:37.976Z,24.00
2023-04-02T12:46:08.005Z,17.25
2023-04-02T12:48:37.236Z,18.00
2023-04-02T12:51:05.657Z,21.00
2023-04-02T12:53:37.716Z,23.25
2023-04-02T12:56:08.400Z,22.00
2023-04-02T12:58:37.779Z,19.00
2023-04-02T13:01:16.361Z,22.25
2023-04-02T13:03:44.731Z,18.75
2023-04-02T13:06:23.662Z,22.25
2023-04-02T13:08:52.346Z,21.25
2023-04-02T13:11:22.803Z,22.25
2023-04-02T13:13:51.662Z,23.50
2023-04-02T13:16:28.311Z,21.50
2023-04-02T13:19:12.901Z,21.00
2023-04-02T13:21:41.544Z,22.00
2023-04-02T13:24:17.983Z,21.75
2023-04-02T13:26:49.946Z,22.50
2023-04-02T13:29:21.259Z,17.25
2023-04-02T13:31:49.882Z,22.50
2023-04-02T13:34:18.170Z,20.50
2023-04-02T13:36:46.579Z,20.75
2023-04-02T13:39:14.652Z,21.50
2023-04-02T13:41:44.136Z,17.75
2023-04-02T13:44:25.001Z,16.75
2023-04-02T13:46:53.947Z,16.25
2023-04-02T13:49:22.450Z,13.50
2023-04-02T13:51:51.882Z,19.25
2023-04-02T13:54:22.656Z,20.00
2023-04-02T13:56:50.999Z,15.00
2023-04-02T13:59:19.288Z,18.50
2023-04-02T14:01:49.867Z,17.25
2023-04-02T14:04:20.287Z,16.75
2023-04-02T14:07:02.381Z,12.75
2023-04-02T14:09:33.669Z,15.75
2023-04-02T14:12:05.317Z,16.00
2023-04-02T14:14:41.760Z,16.75
2023-04-02T14:17:16.974Z,18.25
2023-04-02T14:19:59.506Z,15.50
2023-04-02T14:22:38.170Z,14.25
2023-04-02T14:25:11.085Z,18.50
2023-04-02T14:27:42.707Z,17.75
2023-04-02T14:30:14.650Z,17.25
2023-04-02T14:32:49.795Z,14.25
2023-04-02T14:35:22.159Z,15.25
2023-04-02T14:37:56.126Z,16.75
2023-04-02T14:40:27.207Z,15.25
2023-04-02T14:42:58.220Z,17.75
2023-04-02T14:45:32.328Z,18.50
2023-04-02T14:48:04.564Z,16.00
2023-04-02T14:50:35.193Z,15.00
2023-04-02T14:53:08.790Z,18.25
2023-04-02T14:55:39.798Z,16.25
2023-04-02T14:58:11.995Z,15.50
2023-04-02T15:00:41.464Z,16.75
2023-04-02T15:03:14.680Z,19.75
2023-04-02T15:05:44.750Z,19.25
2023-04-02T15:08:19.434Z,16.50
2023-04-02T15:10:56.330Z,19.50
2023-04-02T15:13:28.320Z,16.50
2023-04-02T15:15:58.811Z,20.00
2023-04-02T15:18:28.285Z,21.25
2023-04-02T15:21:01.314Z,17.00
2023-04-02T15:23:46.996Z,21.00
2023-04-02T15:26:19.753Z,18.00
2023-04-02T15:28:50.363Z,16.75
2023-04-02T15:31:22.730Z,18.75
2023-04-02T15:33:56.061Z,19.75
2023-04-02T15:36:33.971Z,20.25
2023-04-02T15:39:05.526Z,20.50
2023-04-02T15:41:38.154Z,15.50
2023-04-02T15:44:10.113Z,18.75
2023-04-02T15:46:45.618Z,22.00
2023-04-02T15:49:27.515Z,20.25
2023-04-02T15:52:00.832Z,15.50
2023-04-02T15:54:38.253Z,2.00
2023-04-02T15:57:15.470Z,20.50
2023-04-02T16:00:13.142Z,19.00
2023-04-02T16:02:47.651Z,15.25
2023-04-02T16:05:21.361Z,21.50
2023-04-02T16:07:56.466Z,21.50
2023-04-02T16:10:38.385Z,16.25
2023-04-02T16:13:15.488Z,17.00
2023-04-02T16:15:48.209Z,19.50
2023-04-02T16:18:18.445Z,18.75
2023-04-02T16:20:48.643Z,17.75
2023-04-02T16:23:18.942Z,17.00
2023-04-02T16:25:56.611Z,13.75
2023-04-02T16:28:25.964Z,15.50
2023-04-02T16:30:57.352Z,15.00
2023-04-02T16:33:37.880Z,16.00
2023-04-02T16:36:18.021Z,16.00
2023-04-02T16:38:50.328Z,13.50
2023-04-02T16:41:24.927Z,12.50
2023-04-02T16:43:57.752Z,16.50
2023-04-02T16:46:39.774Z,12.25
2023-04-02T16:49:17.299Z,12.50
2023-04-02T16:51:53.169Z,9.25
2023-04-02T16:54:26.702Z,16.25
2023-04-02T16:57:01.496Z,12.25
2023-04-02T16:59:36.497Z,14.25
2023-04-02T17:02:10.388Z,17.25
2023-04-02T17:04:53.979Z,16.00
2023-04-02T17:07:34.250Z,10.50
2023-04-02T17:10:17.505Z,16.50
2023-04-02T17:12:46.986Z,13.00
2023-04-02T17:18:20.680Z,16.75
2023-04-02T17:20:49.203Z,15.50
2023-04-02T17:23:55.176Z,17.00
2023-04-02T17:26:26.815Z,16.50
2023-04-02T17:28:56.201Z,18.25
2023-04-02T17:31:27.010Z,15.75
2023-04-02T17:33:55.123Z,16.00
2023-04-02T17:36:47.959Z,14.50
2023-04-02T17:39:20.972Z,14.75
2023-04-02T17:42:07.400Z,18.75
2023-04-02T17:44:46.025Z,18.25
2023-04-02T17:47:20.323Z,15.00
2023-04-02T17:50:27.328Z,12.50
2023-04-02T17:53:05.096Z,17.25
2023-04-02T17:55:40.938Z,13.25
2023-04-02T17:58:17.319Z,16.75
2023-04-02T18:01:14.432Z,13.00
2023-04-02T18:03:49.627Z,15.00
2023-04-02T18:06:20.376Z,14.75
2023-04-02T18:08:56.535Z,16.25
2023-04-02T18:11:31.260Z,16.25
2023-04-02T18:14:17.961Z,12.75
2023-04-02T18:16:50.642Z,15.00
2023-04-02T18:19:20.220Z,16.50
2023-04-02T18:21:52.558Z,12.75
2023-04-02T18:24:39.204Z,14.25
2023-04-02T18:27:17.015Z,9.50
2023-04-02T18:29:51.839Z,16.25
2023-04-02T18:32:29.351Z,13.00
2023-04-02T18:35:16.043Z,15.75
2023-04-02T18:37:48.092Z,18.00
2023-04-02T18:40:22.942Z,12.25
2023-04-02T18:42:59.203Z,16.00
2023-04-02T18:45:33.105Z,17.00
2023-04-02T18:48:08.250Z,17.75
2023-04-02T18:50:38.289Z,11.75
2023-04-02T18:53:11.990Z,13.25
2023-04-02T18:55:42.376Z,12.25
2023-04-02T18:58:14.846Z,15.00
2023-04-02T19:00:45.697Z,14.25
2023-04-02T19:03:17.756Z,16.50
2023-04-02T19:05:49.961Z,15.00
2023-04-02T19:08:23.597Z,14.25
2023-04-02T19:11:12.168Z,11.50
2023-04-02T19:13:41.777Z,15.50
2023-04-02T19:16:22.939Z,14.25
2023-04-02T19:18:57.956Z,15.25
2023-04-02T19:21:33.793Z,16.50
2023-04-02T19:24:09.269Z,8.75
2023-04-02T19:26:42.068Z,14.00
2023-04-02T19:29:19.832Z,13.50
2023-04-02T19:31:54.259Z,14.50
2023-04-02T19:34:28.320Z,12.00
2023-04-02T19:36:58.401Z,15.75
2023-04-02T19:39:41.786Z,15.00
2023-04-02T19:42:15.144Z,12.25
2023-04-02T19:44:47.019Z,15.50
2023-04-02T19:47:16.005Z,13.75
2023-04-02T19:49:44.409Z,11.25
2023-04-02T19:52:13.339Z,9.00
2023-04-02T19:54:41.777Z,14.00
2023-04-02T19:57:13.656Z,15.50
2023-04-02T19:59:41.972Z,15.75
2023-04-02T20:02:12.218Z,16.00
2023-04-02T20:04:42.680Z,18.75
2023-04-02T20:07:10.800Z,16.75
2023-04-02T20:09:39.395Z,15.00
2023-04-02T20:12:08.141Z,14.75
2023-04-02T20:14:37.105Z,14.50
2023-04-02T20:17:06.570Z,15.75
2023-04-02T20:19:36.930Z,15.50
2023-04-02T20:22:05.504Z,14.75
2023-04-02T20:24:34.053Z,16.00
2023-04-02T20:27:03.269Z,15.25
2023-04-02T20:29:32.423Z,17.50
2023-04-02T20:32:00.747Z,15.75
2023-04-02T20:34:29.272Z,16.25
2023-04-02T20:36:59.939Z,17.75
2023-04-02T20:39:28.913Z,17.50
2023-04-02T20:42:01.059Z,17.50
2023-04-02T20:44:29.669Z,18.50
2023-04-02T20:46:57.872Z,13.75
2023-04-02T20:49:26.702Z,17.50
2023-04-02T20:51:57.189Z,17.75
2023-04-02T20:54:26.740Z,14.00
2023-04-02T20:56:54.934Z,20.50
2023-04-02T20:59:23.027Z,19.00
2023-04-02T21:01:51.327Z,17.00
2023-04-02T21:04:19.983Z,17.50
2023-04-02T21:06:48.777Z,16.75
2023-04-02T21:09:17.889Z,15.75
2023-04-02T21:11:47.582Z,15.50
2023-04-02T21:14:15.704Z,15.50
2023-04-02T21:16:43.792Z,18.00
2023-04-02T21:19:12.473Z,16.50
2023-04-02T21:21:42.013Z,17.00
2023-04-02T21:24:10.577Z,14.50
2023-04-02T21:26:39.534Z,15.25
2023-04-02T21:29:09.095Z,15.75
2023-04-02T21:31:38.344Z,18.00
2023-04-02T21:34:07.685Z,14.25
2023-04-02T21:36:36.337Z,16.00
2023-04-02T21:39:06.316Z,15.75
2023-04-02T21:41:35.391Z,15.00
2023-04-02T21:44:04.893Z,15.50
2023-04-02T21:46:35.544Z,17.50
2023-04-02T21:49:03.729Z,16.00
2023-04-02T21:51:32.454Z,16.25
2023-04-02T21:54:01.043Z,17.00
2023-04-02T21:56:29.885Z,18.50
2023-04-02T21:58:58.819Z,17.50
2023-04-02T22:01:28.130Z,14.25
2023-04-02T22:03:58.296Z,14.00
2023-04-02T22:06:27.286Z,19.75
2023-04-02T22:08:56.328Z,14.75
2023-04-02T22:11:25.284Z,17.00
2023-04-02T22:13:54.011Z,19.25
2023-04-02T22:16:24.022Z,19.50
2023-04-02T22:18:53.407Z,19.75
2023-04-02T22:21:23.390Z,20.75
2023-04-02T22:23:51.613Z,20.00
2023-04-02T22:26:20.907Z,19.00
2023-04-02T22:28:48.974Z,15.25
2023-04-02T22:31:17.921Z,17.00
2023-04-02T22:33:46.687Z,19.00
2023-04-02T22:36:15.508Z,11.75
2023-04-02T22:38:45.130Z,19.00
2023-04-02T22:41:14.123Z,22.00
2023-04-02T22:43:44.001Z,18.50
2023-04-02T22:46:13.074Z,20.00
2023-04-02T22:48:41.595Z,17.25
2023-04-02T22:51:10.572Z,13.00
2023-04-02T22:53:39.100Z,18.00
2023-04-02T22:56:09.313Z,18.75
2023-04-02T22:58:37.530Z,20.25
2023-04-02T23:01:06.107Z,19.50
2023-04-02T23:03:34.368Z,14.50
2023-04-02T23:06:03.108Z,19.75
2023-04-02T23:08:31.170Z,19.25
2023-04-02T23:11:02.864Z,15.50
2023-04-02T23:13:33.116Z,17.50
2023-04-02T23:16:01.642Z,17.25
2023-04-02T23:18:30.014Z,14.00
2023-04-02T23:20:58.262Z,19.00
2023-04-02T23:23:27.098Z,18.25
2023-04-02T23:26:03.547Z,16.00
2023-04-02T23:28:33.089Z,19.25
2023-04-02T23:31:02.563Z,17.75
2023-04-02T23:33:30.886Z,19.25
2023-04-02T23:35:59.171Z,18.25
2023-04-02T23:38:27.536Z,19.50
2023-04-02T23:40:55.595Z,18.75
2023-04-02T23:43:23.597Z,18.50
2023-04-02T23:45:53.061Z,14.50
2023-04-02T23:48:21.143Z,19.50
2023-04-02T23:50:49.185Z,16.00
2023-04-02T23:53:18.841Z,11.25
2023-04-02T23:55:47.121Z,22.25
2023-04-02T23:58:15.184Z,20.00
